createdAt,value
2018-05-14T00:02:34.274Z,94140.05
2018-05-14T00:17:34.066Z,94143.06
2018-05-14T00:32:34.239Z,94136.64
2018-05-14T00:47:36.410Z,94134.72
2018-05-14T01:02:34.558Z,94130.91
2018-05-14T01:17:34.355Z,94120.05
2018-05-14T01:32:34.296Z,94125.55
2018-05-14T01:47:34.674Z,94124.72
2018-05-14T02:02:34.874Z,94119.27
2018-05-14T02:17:34.632Z,94122.67
2018-05-14T02:32:34.594Z,94113.49
2018-05-14T02:47:33.998Z,94128.21
2018-05-14T03:02:33.962Z,94148.51
2018-05-14T03:17:34.188Z,94154.05
2018-05-14T03:32:36.106Z,94157.09
2018-05-14T03:47:36.506Z,94164.56
2018-05-14T04:02:46.256Z,94170.89
2018-05-14T04:17:36.537Z,94174.16
2018-05-14T04:32:36.182Z,94200.06
2018-05-14T04:47:36.509Z,94213.17
2018-05-14T05:02:34.754Z,94226.22
2018-05-14T05:17:34.623Z,94232.16
2018-05-14T05:32:34.428Z,94235.01
2018-05-14T05:47:34.827Z,94245.87
2018-05-14T06:02:35.012Z,94243.89
2018-05-14T06:17:34.974Z,94248.63
2018-05-14T06:32:35.416Z,94231.22
2018-05-14T06:47:36.350Z,94241.02
2018-05-14T07:02:36.037Z,94240.66
2018-05-14T07:17:34.804Z,94245.64
2018-05-14T07:32:35.833Z,94243.78
2018-05-14T07:47:34.691Z,94244.19
2018-05-14T08:02:34.646Z,94251.65
2018-05-14T08:17:35.193Z,94238.60
2018-05-14T08:32:34.957Z,94242.18
2018-05-14T08:47:35.091Z,94234.34
2018-05-14T09:02:34.943Z,94207.64
2018-05-14T09:17:34.778Z,94230.18
2018-05-14T09:32:34.752Z,94218.66
2018-05-14T09:47:35.219Z,94217.02
2018-05-14T10:02:36.738Z,94215.34
2018-05-14T10:17:36.270Z,94205.55
2018-05-14T10:32:35.686Z,94224.21
2018-05-14T10:47:34.497Z,94240.08
2018-05-14T11:02:34.625Z,94260.21
2018-05-14T11:17:35.896Z,94275.10
2018-05-14T11:32:34.655Z,94288.48
2018-05-14T11:47:35.082Z,94284.13
2018-05-14T12:02:34.794Z,94250.77
2018-05-14T12:17:36.158Z,94226.70
2018-05-14T12:32:34.893Z,94221.17
2018-05-14T12:47:34.350Z,94211.11
2018-05-14T13:02:34.813Z,94208.52
2018-05-14T13:17:34.829Z,94203.35
2018-05-14T13:32:34.812Z,94181.91
2018-05-14T13:47:35.138Z,94161.72
2018-05-14T14:02:36.822Z,94162.34
2018-05-14T14:17:35.089Z,94196.70
2018-05-14T14:32:35.094Z,94193.88
2018-05-14T14:47:34.601Z,94205.06
2018-05-14T15:02:36.567Z,94197.18
2018-05-14T15:17:37.502Z,94187.72
2018-05-14T15:32:34.784Z,94185.30
2018-05-14T15:47:34.842Z,94188.45
2018-05-14T16:02:34.891Z,94169.55
2018-05-14T16:17:36.716Z,94168.75
2018-05-14T16:32:37.184Z,94179.86
2018-05-14T16:47:35.041Z,94182.70
2018-05-14T17:02:35.035Z,94194.35
2018-05-14T17:17:37.116Z,94205.59
2018-05-14T17:32:34.366Z,94242.30
2018-05-14T17:47:34.490Z,94268.30
2018-05-14T18:02:33.832Z,94284.56
2018-05-14T18:17:34.383Z,94323.28
2018-05-14T18:32:36.840Z,94341.50
2018-05-14T18:47:35.965Z,94346.13
2018-05-14T19:02:37.872Z,94357.58
2018-05-14T19:17:40.584Z,94367.38
2018-05-14T19:32:37.086Z,94371.43
2018-05-14T19:47:35.066Z,94376.94
2018-05-14T20:02:34.931Z,94373.48
2018-05-14T20:17:35.072Z,94392.38
2018-05-14T20:32:33.920Z,94389.96
2018-05-14T20:47:38.914Z,94386.48
2018-05-14T21:02:33.851Z,94384.97
2018-05-14T21:17:34.458Z,94376.28
2018-05-14T21:32:36.847Z,94346.94
2018-05-14T21:47:36.814Z,94353.95
2018-05-14T22:02:36.392Z,94356.05
2018-05-14T22:17:35.173Z,94369.43
2018-05-14T22:32:38.267Z,94379.41
2018-05-14T22:47:34.935Z,94394.56
2018-05-14T23:02:35.199Z,94392.14
2018-05-14T23:17:37.272Z,94390.91
2018-05-14T23:32:34.423Z,94392.42
2018-05-14T23:47:38.266Z,94389.23
